Time;durP1;ratioP1;P1;durP2;ratioP2;P2;SDS_P1;SDS_P2;PMS_P1;PMS_P2;Temp;Humidity;BMP_temperature;BMP_pressure;BME280_temperature;BME280_humidity;BME280_pressure;Samples;Min_cycle;Max_cycle;Signal;HPM_P1;HPM_P2
2022/01/04 00:01:28;;;;;;;20.90;11.07;;;8.70;75.80;;;;;;5097473;28;20507;-22
2022/01/04 00:03:54;;;;;;;22.42;11.68;;;8.60;75.70;;;;;;5097022;28;20060;-21
2022/01/04 00:06:20;;;;;;;29.67;16.55;;;8.60;75.70;;;;;;5097222;28;20070;-22
2022/01/04 00:08:45;;;;;;;19.38;11.20;;;8.60;75.70;;;;;;5097431;28;20024;-21
2022/01/04 00:11:18;;;;;;;19.70;9.65;;;8.60;75.70;;;;;;5096926;28;20034;-21
2022/01/04 00:13:44;;;;;;;17.27;9.88;;;8.60;75.60;;;;;;5097344;28;20024;-23
2022/01/04 00:16:11;;;;;;;27.73;15.73;;;8.60;75.70;;;;;;5096835;28;20037;-22
2022/01/04 00:18:41;;;;;;;26.98;14.07;;;8.60;75.70;;;;;;5096661;28;20036;-22
2022/01/04 00:21:07;;;;;;;21.83;11.77;;;8.60;75.70;;;;;;5096848;28;20020;-21
2022/01/04 00:23:33;;;;;;;17.77;9.48;;;8.60;75.70;;;;;;5096785;28;20035;-21
2022/01/04 00:25:59;;;;;;;16.13;9.13;;;8.50;75.70;;;;;;5097038;28;20020;-22
2022/01/04 00:28:25;;;;;;;26.38;14.63;;;8.60;75.70;;;;;;5096673;28;20051;-21
2022/01/04 00:30:51;;;;;;;14.15;7.55;;;8.60;75.60;;;;;;5096971;28;20055;-22
2022/01/04 00:33:17;;;;;;;21.95;12.70;;;8.60;75.60;;;;;;5096616;28;20075;-21
2022/01/04 00:35:45;;;;;;;21.08;11.43;;;8.60;75.60;;;;;;5096622;28;20016;-21
2022/01/04 00:38:11;;;;;;;20.65;11.20;;;8.60;75.60;;;;;;5096383;28;20028;-21
2022/01/04 00:40:37;;;;;;;20.25;11.15;;;8.60;75.60;;;;;;5096228;28;20073;-21
2022/01/04 00:43:05;;;;;;;19.83;11.30;;;8.60;75.50;;;;;;5096582;28;20057;-21
2022/01/04 00:45:32;;;;;;;16.70;9.10;;;8.60;75.60;;;;;;5095189;28;20028;-21
2022/01/04 00:50:30;;;;;;;16.98;9.00;;;8.50;75.60;;;;;;5096384;28;20032;-21
2022/01/04 00:52:57;;;;;;;32.28;18.40;;;8.50;75.70;;;;;;5096529;28;20035;-22
2022/01/04 00:55:25;;;;;;;18.02;10.13;;;8.60;75.70;;;;;;5096217;28;20069;-21
2022/01/04 00:57:51;;;;;;;15.00;7.72;;;8.60;75.70;;;;;;5095966;28;20141;-21
2022/01/04 01:00:20;;;;;;;14.23;7.80;;;8.60;75.70;;;;;;5095449;28;20097;-22
2022/01/04 01:02:47;;;;;;;18.83;10.00;;;8.60;75.60;;;;;;5096129;28;20484;-22
2022/01/04 01:05:14;;;;;;;23.95;13.43;;;8.60;75.60;;;;;;5095994;28;20492;-22
2022/01/04 01:07:41;;;;;;;21.63;11.35;;;8.60;75.60;;;;;;5096720;28;20091;-22
2022/01/04 01:12:41;;;;;;;24.38;14.77;;;8.60;75.70;;;;;;5095819;28;20036;-22
2022/01/04 01:15:08;;;;;;;21.67;12.15;;;8.60;75.60;;;;;;5096098;28;20027;-22
2022/01/04 01:17:35;;;;;;;17.63;10.23;;;8.60;75.60;;;;;;5095676;28;20028;-22
2022/01/04 01:20:03;;;;;;;32.50;19.23;;;8.60;75.70;;;;;;5095660;28;20024;-22
2022/01/04 01:22:29;;;;;;;21.40;11.98;;;8.60;75.80;;;;;;5095758;28;20036;-22
2022/01/04 01:24:57;;;;;;;19.20;10.35;;;8.60;75.80;;;;;;5095553;28;20074;-21
2022/01/04 01:27:23;;;;;;;16.02;9.07;;;8.60;75.70;;;;;;5095510;28;20099;-22
2022/01/04 01:29:49;;;;;;;26.63;16.30;;;8.60;75.70;;;;;;5095482;28;20039;-22
2022/01/04 01:32:15;;;;;;;28.33;16.42;;;8.60;75.70;;;;;;5095156;28;20028;-22
2022/01/04 01:34:42;;;;;;;27.20;15.93;;;8.60;75.80;;;;;;5095663;28;20084;-22
2022/01/04 01:37:09;;;;;;;20.95;12.88;;;8.60;75.80;;;;;;5095275;28;20587;-22
2022/01/04 01:39:35;;;;;;;18.13;10.13;;;8.60;75.70;;;;;;5095603;28;20035;-21
2022/01/04 01:42:01;;;;;;;18.75;9.98;;;8.60;75.70;;;;;;5095362;28;20028;-22
2022/01/04 01:44:27;;;;;;;17.77;10.85;;;8.60;75.70;;;;;;5095078;28;20024;-21
2022/01/04 01:46:56;;;;;;;12.60;7.22;;;8.60;75.70;;;;;;5095485;28;20028;-22
2022/01/04 01:49:21;;;;;;;14.27;9.13;;;8.60;75.70;;;;;;5095100;28;20020;-21
2022/01/04 01:51:48;;;;;;;15.27;8.75;;;8.60;75.70;;;;;;5095133;28;20031;-21
2022/01/04 01:54:14;;;;;;;13.98;8.88;;;8.60;75.80;;;;;;5095176;28;20032;-22
2022/01/04 01:56:39;;;;;;;20.85;11.07;;;8.60;75.70;;;;;;5094968;28;20398;-21
2022/01/04 01:59:06;;;;;;;27.90;16.90;;;8.70;75.70;;;;;;5095442;28;20031;-21
2022/01/04 02:01:32;;;;;;;19.02;10.63;;;8.60;75.70;;;;;;5094872;28;20028;-21
2022/01/04 02:03:58;;;;;;;26.05;16.80;;;8.60;75.70;;;;;;5093435;28;20063;-22
2022/01/04 02:06:29;;;;;;;28.20;17.38;;;8.60;75.70;;;;;;5094610;28;20038;-21
2022/01/04 02:08:59;;;;;;;38.60;22.27;;;8.60;75.80;;;;;;5094800;28;20024;-22
2022/01/04 02:11:30;;;;;;;42.67;24.42;;;8.60;75.70;;;;;;5093858;28;20471;-21
2022/01/04 02:14:00;;;;;;;38.55;22.85;;;8.60;75.90;;;;;;5095008;28;20028;-22
2022/01/04 02:16:28;;;;;;;42.00;24.10;;;8.50;75.90;;;;;;5094561;28;20036;-22
2022/01/04 02:19:06;;;;;;;38.35;23.10;;;8.50;75.90;;;;;;5094533;28;20567;-21
2022/01/04 02:21:33;;;;;;;35.28;20.58;;;8.50;75.90;;;;;;5095164;28;20107;-21
2022/01/04 02:24:00;;;;;;;41.95;24.90;;;8.40;76.00;;;;;;5095300;28;20108;-21
2022/01/04 02:26:29;;;;;;;27.58;15.65;;;8.40;76.00;;;;;;5094393;28;20020;-21
2022/01/04 02:28:55;;;;;;;37.63;22.98;;;8.40;75.90;;;;;;5094714;28;20016;-21
2022/01/04 02:31:21;;;;;;;39.78;23.48;;;8.40;75.90;;;;;;5094358;28;20024;-21
2022/01/04 02:33:47;;;;;;;28.85;16.25;;;8.40;75.90;;;;;;5094566;28;20047;-22
2022/01/04 02:36:13;;;;;;;42.38;23.77;;;8.30;75.90;;;;;;5094454;28;20062;-22
2022/01/04 02:38:38;;;;;;;26.38;15.50;;;8.30;75.90;;;;;;5094172;28;20395;-21
2022/01/04 02:41:04;;;;;;;28.80;16.20;;;8.30;75.90;;;;;;5094443;28;20035;-22
2022/01/04 02:43:31;;;;;;;29.73;17.60;;;8.20;76.00;;;;;;5094015;28;20548;-22
2022/01/04 02:45:57;;;;;;;21.55;11.25;;;8.20;76.30;;;;;;5094049;28;20111;-22
2022/01/04 02:48:23;;;;;;;39.92;22.65;;;8.20;76.20;;;;;;5092666;28;20166;-21
2022/01/04 02:50:53;;;;;;;38.03;20.67;;;8.10;76.30;;;;;;5094114;28;20073;-21
2022/01/04 02:53:19;;;;;;;21.90;12.38;;;8.10;76.40;;;;;;5094068;28;20028;-21
2022/01/04 02:55:45;;;;;;;40.00;21.20;;;8.10;76.30;;;;;;5094039;28;20039;-21
2022/01/04 02:58:13;;;;;;;18.60;9.20;;;8.10;76.40;;;;;;5093816;28;20056;-21
2022/01/04 03:00:40;;;;;;;20.05;10.82;;;8.10;76.30;;;;;;5094076;28;20024;-21
2022/01/04 03:03:06;;;;;;;33.40;19.40;;;8.20;76.30;;;;;;5093497;28;20036;-21
2022/01/04 03:05:32;;;;;;;23.33;13.60;;;8.10;76.40;;;;;;5093731;28;20093;-21
2022/01/04 03:07:58;;;;;;;23.77;14.00;;;8.20;76.30;;;;;;5093720;28;20081;-21
2022/01/04 03:10:23;;;;;;;23.30;12.68;;;8.20;76.30;;;;;;5093759;28;20016;-21
2022/01/04 03:12:50;;;;;;;38.80;22.05;;;8.20;76.40;;;;;;5093783;28;20046;-22
2022/01/04 03:15:16;;;;;;;24.67;12.95;;;8.20;76.30;;;;;;5093558;28;20024;-21
2022/01/04 03:17:42;;;;;;;23.00;12.48;;;8.10;76.40;;;;;;5093512;28;20081;-21
2022/01/04 03:20:09;;;;;;;26.08;15.07;;;8.20;76.40;;;;;;5093476;28;20388;-22
2022/01/04 03:22:35;;;;;;;20.95;10.95;;;8.20;76.40;;;;;;5093370;28;20024;-21
2022/01/04 03:25:01;;;;;;;32.67;19.17;;;8.20;76.40;;;;;;5093777;28;20030;-22
2022/01/04 03:27:27;;;;;;;33.72;18.73;;;8.20;76.40;;;;;;5094132;28;20360;-21
2022/01/04 03:29:53;;;;;;;25.08;14.93;;;8.20;76.40;;;;;;5093407;28;20081;-21
2022/01/04 03:32:18;;;;;;;23.88;14.02;;;8.20;76.30;;;;;;5093502;28;20032;-21
2022/01/04 03:34:44;;;;;;;22.13;12.65;;;8.20;76.30;;;;;;5093827;28;20028;-21
2022/01/04 03:37:10;;;;;;;31.50;20.00;;;8.20;76.20;;;;;;5093240;28;20071;-22
2022/01/04 03:39:36;;;;;;;22.48;13.20;;;8.20;76.20;;;;;;5093886;28;20059;-21
2022/01/04 03:42:03;;;;;;;17.42;9.95;;;8.30;76.20;;;;;;5093503;28;20468;-21
2022/01/04 03:44:30;;;;;;;16.70;9.77;;;8.30;76.20;;;;;;5093020;28;20060;-22
2022/01/04 03:46:56;;;;;;;32.63;18.27;;;8.20;76.20;;;;;;5093802;28;20091;-21
2022/01/04 03:49:23;;;;;;;14.70;8.07;;;8.30;76.20;;;;;;5094179;28;20032;-21
2022/01/04 03:51:49;;;;;;;12.07;6.75;;;8.30;76.20;;;;;;5093769;28;20051;-22
2022/01/04 03:54:16;;;;;;;16.98;8.32;;;8.30;76.20;;;;;;5093197;28;20464;-21
2022/01/04 03:56:42;;;;;;;22.05;12.48;;;8.40;76.20;;;;;;5092975;28;20032;-21
2022/01/04 03:59:08;;;;;;;22.95;13.15;;;8.40;76.10;;;;;;5093384;28;20035;-21
2022/01/04 04:01:34;;;;;;;34.80;20.25;;;8.40;76.00;;;;;;5093059;28;20067;-21
2022/01/04 04:04:00;;;;;;;21.42;12.13;;;8.40;76.00;;;;;;5092876;28;20084;-22
2022/01/04 04:06:26;;;;;;;30.85;17.35;;;8.40;76.00;;;;;;5092810;28;20039;-21
2022/01/04 04:08:56;;;;;;;35.75;19.30;;;8.40;76.00;;;;;;5093582;28;20017;-22
2022/01/04 04:11:23;;;;;;;20.90;12.05;;;8.40;76.00;;;;;;5092944;28;20518;-22
2022/01/04 04:13:49;;;;;;;36.53;20.67;;;8.40;76.00;;;;;;5093144;28;20027;-21
2022/01/04 04:16:15;;;;;;;32.92;18.58;;;8.40;76.10;;;;;;5092999;28;20403;-21
2022/01/04 04:18:42;;;;;;;30.95;17.95;;;8.40;76.10;;;;;;5093187;28;20098;-21
2022/01/04 04:21:08;;;;;;;23.92;13.18;;;8.40;76.20;;;;;;5093316;28;20026;-21
2022/01/04 04:23:34;;;;;;;25.75;14.35;;;8.40;76.10;;;;;;5092797;28;20020;-21
2022/01/04 04:26:00;;;;;;;35.55;20.00;;;8.40;76.10;;;;;;5093372;28;20038;-21
2022/01/04 04:28:26;;;;;;;21.70;12.32;;;8.40;76.10;;;;;;5092642;28;20028;-21
2022/01/04 04:30:52;;;;;;;29.73;15.63;;;8.40;76.10;;;;;;5092786;28;20030;-22
2022/01/04 04:33:18;;;;;;;29.90;16.50;;;8.40;76.10;;;;;;5093600;28;20110;-21
2022/01/04 04:35:44;;;;;;;29.02;17.02;;;8.40;76.10;;;;;;5096549;28;20102;-21
2022/01/04 04:38:10;;;;;;;36.90;19.77;;;8.40;76.10;;;;;;5096717;28;20032;-21
2022/01/04 04:40:36;;;;;;;18.25;9.18;;;8.40;76.10;;;;;;5096261;28;20024;-21
2022/01/04 04:43:02;;;;;;;30.02;16.55;;;8.40;76.10;;;;;;5096483;28;20028;-21
2022/01/04 04:45:29;;;;;;;22.90;13.13;;;8.40;76.10;;;;;;5096580;28;20024;-21
2022/01/04 04:47:54;;;;;;;26.95;14.50;;;8.40;76.00;;;;;;5096372;28;20487;-22
2022/01/04 04:50:20;;;;;;;26.15;13.70;;;8.40;76.00;;;;;;5096451;28;20108;-21
2022/01/04 04:52:46;;;;;;;19.45;10.27;;;8.40;76.10;;;;;;5096534;28;20031;-21
2022/01/04 04:55:13;;;;;;;17.38;9.30;;;8.50;76.00;;;;;;5096501;28;20031;-21
2022/01/04 04:57:39;;;;;;;21.48;11.70;;;8.50;76.00;;;;;;5096058;28;20028;-22
2022/01/04 05:00:08;;;;;;;16.10;8.20;;;8.50;75.90;;;;;;5096146;28;20032;-21
2022/01/04 05:02:34;;;;;;;17.38;8.77;;;8.50;75.90;;;;;;5095921;28;20499;-21
2022/01/04 05:05:01;;;;;;;16.75;8.65;;;8.50;75.90;;;;;;5096334;28;20028;-21
2022/01/04 05:07:27;;;;;;;15.70;8.48;;;8.50;75.90;;;;;;5096174;28;20029;-21
2022/01/04 05:09:53;;;;;;;16.65;7.97;;;8.50;75.90;;;;;;5095956;28;20024;-21
2022/01/04 05:12:19;;;;;;;16.02;9.13;;;8.50;75.90;;;;;;5095962;28;20028;-21
2022/01/04 05:14:46;;;;;;;14.07;8.40;;;8.50;75.90;;;;;;5095719;28;20056;-21
2022/01/04 05:17:15;;;;;;;25.88;14.18;;;8.50;75.90;;;;;;5095751;28;20044;-21
2022/01/04 05:19:41;;;;;;;16.20;8.45;;;8.50;75.80;;;;;;5095764;28;20024;-21
2022/01/04 05:22:08;;;;;;;14.80;7.95;;;8.60;75.80;;;;;;5096043;28;20081;-21
2022/01/04 05:24:34;;;;;;;13.02;7.28;;;8.60;75.80;;;;;;5095792;28;20035;-21
2022/01/04 05:27:01;;;;;;;20.73;11.82;;;8.60;75.70;;;;;;5095546;28;20021;-21
2022/01/04 05:29:27;;;;;;;12.77;6.88;;;8.60;75.70;;;;;;5095562;28;20085;-21
2022/01/04 05:31:54;;;;;;;15.63;9.10;;;8.60;75.70;;;;;;5095859;28;20028;-21
2022/01/04 05:34:20;;;;;;;15.50;8.75;;;8.60;75.70;;;;;;5095311;28;20543;-21
2022/01/04 05:36:45;;;;;;;14.23;7.93;;;8.50;75.70;;;;;;5095649;28;20025;-21
2022/01/04 05:39:11;;;;;;;18.95;9.75;;;8.60;75.70;;;;;;5095581;28;20388;-22
2022/01/04 05:41:37;;;;;;;15.38;8.80;;;8.60;75.70;;;;;;5095714;28;20391;-21
2022/01/04 05:44:03;;;;;;;28.63;16.70;;;8.60;75.70;;;;;;5095858;28;20024;-21
2022/01/04 05:46:29;;;;;;;14.18;7.47;;;8.60;75.70;;;;;;5093741;28;20035;-21
2022/01/04 05:48:56;;;;;;;15.68;8.18;;;8.60;75.70;;;;;;5093949;28;20027;-21
2022/01/04 05:51:21;;;;;;;18.85;10.40;;;8.60;75.70;;;;;;5095374;28;20031;-21
2022/01/04 05:53:47;;;;;;;16.95;9.40;;;8.60;75.70;;;;;;5095405;28;20384;-21
2022/01/04 05:56:13;;;;;;;21.95;11.90;;;8.70;75.60;;;;;;5095291;28;20498;-21
2022/01/04 05:58:39;;;;;;;15.13;7.90;;;8.60;75.60;;;;;;5094898;28;20024;-21
2022/01/04 06:01:05;;;;;;;17.67;10.25;;;8.60;75.60;;;;;;5094934;28;20036;-22
2022/01/04 06:03:31;;;;;;;14.27;8.77;;;8.70;75.60;;;;;;5094644;28;20052;-21
2022/01/04 06:05:59;;;;;;;15.27;7.45;;;8.70;75.60;;;;;;5095040;28;20095;-21
2022/01/04 06:08:31;;;;;;;15.27;7.10;;;8.60;75.60;;;;;;5094629;28;20031;-21
2022/01/04 06:10:57;;;;;;;15.70;8.48;;;8.60;75.60;;;;;;5095048;28;20069;-22
2022/01/04 06:16:07;;;;;;;32.42;18.27;;;8.70;75.60;;;;;;5095077;28;20097;-21
2022/01/04 06:18:33;;;;;;;18.88;10.20;;;8.70;75.60;;;;;;5094680;28;20472;-21
2022/01/04 06:20:59;;;;;;;15.02;7.80;;;8.70;75.60;;;;;;5094881;28;20423;-21
2022/01/04 06:23:25;;;;;;;31.13;18.17;;;8.70;75.60;;;;;;5094493;28;20032;-21
2022/01/04 06:25:52;;;;;;;17.50;10.82;;;8.70;75.60;;;;;;5094800;28;20032;-22
2022/01/04 06:28:19;;;;;;;35.53;19.52;;;8.70;75.60;;;;;;5094189;28;20546;-22
2022/01/04 06:30:46;;;;;;;28.95;15.52;;;8.70;75.60;;;;;;5094554;28;20039;-21
2022/01/04 06:33:12;;;;;;;22.73;11.18;;;8.70;75.70;;;;;;5094353;28;20027;-21
2022/01/04 06:35:38;;;;;;;25.90;13.75;;;8.70;75.60;;;;;;5094250;28;20032;-21
2022/01/04 06:38:05;;;;;;;17.63;9.85;;;8.70;75.70;;;;;;5094473;28;20033;-21
2022/01/04 06:40:31;;;;;;;25.60;14.32;;;8.70;75.70;;;;;;5094320;28;20112;-21
2022/01/04 06:42:57;;;;;;;21.10;11.95;;;8.70;75.60;;;;;;5094121;28;20020;-21
2022/01/04 06:45:23;;;;;;;32.25;18.05;;;8.70;75.60;;;;;;5094262;28;20452;-21
2022/01/04 06:47:49;;;;;;;30.42;16.35;;;8.70;75.60;;;;;;5094278;28;20525;-21
2022/01/04 06:50:18;;;;;;;18.17;11.15;;;8.70;75.60;;;;;;5093129;28;20020;-22
2022/01/04 06:52:44;;;;;;;33.70;18.63;;;8.60;75.60;;;;;;5093972;28;20438;-21
2022/01/04 06:55:10;;;;;;;19.13;10.98;;;8.60;75.60;;;;;;5094259;28;20032;-21
2022/01/04 06:57:37;;;;;;;19.40;9.88;;;8.60;75.70;;;;;;5092127;28;20488;-21
2022/01/04 07:00:04;;;;;;;27.73;16.55;;;8.60;75.60;;;;;;5094439;28;20444;-21
2022/01/04 07:02:30;;;;;;;24.25;14.23;;;8.60;75.70;;;;;;5093913;28;20055;-21
2022/01/04 07:04:56;;;;;;;34.20;20.20;;;8.60;75.70;;;;;;5093731;28;20077;-21
2022/01/04 07:07:24;;;;;;;37.97;21.08;;;8.70;75.80;;;;;;5094063;28;20054;-21
2022/01/04 07:09:50;;;;;;;35.38;20.48;;;8.60;75.80;;;;;;5093913;28;20368;-21
2022/01/04 07:12:16;;;;;;;25.40;15.02;;;8.60;75.80;;;;;;5093701;28;20055;-22
2022/01/04 07:14:42;;;;;;;20.25;12.40;;;8.60;75.80;;;;;;5093642;28;20024;-21
2022/01/04 07:17:08;;;;;;;26.52;14.98;;;8.60;75.70;;;;;;5093516;28;20028;-21
2022/01/04 07:19:34;;;;;;;38.60;23.15;;;8.60;75.70;;;;;;5093533;28;20021;-21
2022/01/04 07:22:00;;;;;;;29.50;16.13;;;8.60;75.80;;;;;;5093544;28;20031;-21
2022/01/04 07:24:26;;;;;;;19.58;11.32;;;8.60;75.80;;;;;;5093234;28;20028;-21
2022/01/04 07:26:52;;;;;;;38.80;20.88;;;8.60;75.80;;;;;;5093621;28;20047;-21
2022/01/04 07:29:19;;;;;;;22.55;12.35;;;8.60;75.90;;;;;;5093372;28;20036;-21
2022/01/04 07:31:44;;;;;;;42.53;22.40;;;8.60;75.80;;;;;;5093653;28;20032;-21
2022/01/04 07:34:10;;;;;;;39.53;24.17;;;8.60;75.90;;;;;;5093452;28;20547;-21
2022/01/04 07:36:36;;;;;;;24.90;13.43;;;8.60;75.90;;;;;;5093532;28;20032;-21
2022/01/04 07:39:02;;;;;;;39.15;23.08;;;8.60;76.00;;;;;;5093241;28;20028;-21
2022/01/04 07:41:29;;;;;;;35.75;20.10;;;8.60;76.00;;;;;;5093270;28;20070;-21
2022/01/04 07:43:55;;;;;;;34.78;20.88;;;8.60;76.10;;;;;;5093160;28;20468;-21
2022/01/04 07:46:23;;;;;;;23.42;14.23;;;8.60;76.10;;;;;;5093350;28;20115;-21
2022/01/04 07:48:50;;;;;;;23.40;14.43;;;8.60;76.00;;;;;;5093159;28;20032;-21
2022/01/04 07:51:18;;;;;;;35.30;20.08;;;8.60;76.00;;;;;;5093136;28;20028;-21
2022/01/04 07:53:44;;;;;;;33.55;18.73;;;8.50;76.00;;;;;;5093428;28;20032;-21
2022/01/04 07:56:10;;;;;;;33.50;19.05;;;8.60;76.10;;;;;;5093014;28;20066;-21
2022/01/04 07:58:36;;;;;;;32.35;19.23;;;8.60;76.20;;;;;;5093179;28;20060;-21
2022/01/04 08:01:02;;;;;;;34.95;20.23;;;8.60;76.30;;;;;;5093319;28;20115;-21
2022/01/04 08:03:28;;;;;;;35.22;21.20;;;8.60;76.30;;;;;;5092793;28;20083;-21
2022/01/04 08:05:53;;;;;;;43.38;25.48;;;8.60;76.40;;;;;;5093060;28;20056;-21
2022/01/04 08:08:19;;;;;;;42.88;23.42;;;8.60;76.40;;;;;;5093308;28;20028;-21
2022/01/04 08:10:47;;;;;;;47.83;27.15;;;8.60;76.40;;;;;;5097006;28;20043;-21
2022/01/04 08:13:14;;;;;;;31.45;17.92;;;8.60;76.40;;;;;;5097231;28;20032;-21
2022/01/04 08:15:40;;;;;;;29.05;16.60;;;8.60;76.30;;;;;;5097814;28;20031;-21
2022/01/04 08:18:06;;;;;;;35.17;18.98;;;8.60;76.30;;;;;;5095656;28;20032;-21
2022/01/04 08:20:32;;;;;;;27.58;16.20;;;8.60;76.40;;;;;;5097331;28;20020;-22
2022/01/04 08:22:59;;;;;;;44.00;24.95;;;8.60;76.40;;;;;;5097260;28;20115;-22
2022/01/04 08:25:25;;;;;;;23.65;13.77;;;8.60;76.40;;;;;;5097105;28;20024;-21
2022/01/04 08:27:52;;;;;;;30.10;18.05;;;8.60;76.40;;;;;;5096978;28;20081;-21
2022/01/04 08:30:19;;;;;;;30.50;18.38;;;8.60;76.30;;;;;;5096525;28;20476;-23
2022/01/04 08:32:45;;;;;;;33.33;17.45;;;8.60;76.30;;;;;;5095462;28;20024;-21
2022/01/04 08:35:11;;;;;;;25.83;15.48;;;8.60;76.30;;;;;;5096950;28;20023;-21
2022/01/04 08:37:39;;;;;;;54.20;32.25;;;8.70;76.30;;;;;;5096785;28;20058;-21
2022/01/04 08:40:07;;;;;;;31.08;18.52;;;8.70;76.40;;;;;;5096510;28;20020;-21
2022/01/04 08:42:35;;;;;;;25.88;14.65;;;8.70;76.40;;;;;;5096310;28;20028;-21
2022/01/04 08:45:01;;;;;;;21.15;13.07;;;8.70;76.40;;;;;;5096749;28;20056;-22
2022/01/04 08:47:27;;;;;;;23.35;12.32;;;8.70;76.30;;;;;;5096392;28;20408;-22
2022/01/04 08:49:53;;;;;;;28.98;17.25;;;8.70;76.30;;;;;;5095160;28;20103;-22
2022/01/04 08:52:19;;;;;;;29.23;17.90;;;8.70;76.30;;;;;;5096134;28;20425;-21
2022/01/04 08:54:45;;;;;;;43.83;27.35;;;8.80;76.30;;;;;;5096230;28;20032;-22
2022/01/04 08:57:11;;;;;;;41.45;25.35;;;8.80;76.40;;;;;;5096108;28;20082;-21
2022/01/04 08:59:37;;;;;;;38.65;21.40;;;8.80;76.40;;;;;;5096438;28;20405;-21
2022/01/04 09:02:03;;;;;;;53.17;29.48;;;8.80;76.40;;;;;;5095888;28;20032;-22
2022/01/04 09:04:29;;;;;;;48.15;27.13;;;8.80;76.60;;;;;;5095955;28;20074;-22
2022/01/04 09:06:55;;;;;;;45.67;27.25;;;8.80;76.60;;;;;;5096495;28;20020;-21
2022/01/04 09:09:24;;;;;;;33.33;19.75;;;8.90;76.70;;;;;;5096275;28;20031;-21
2022/01/04 09:11:50;;;;;;;27.23;14.95;;;8.80;76.50;;;;;;5095980;28;20020;-21
2022/01/04 09:14:29;;;;;;;26.55;15.20;;;8.90;76.50;;;;;;5094436;28;20020;-22
2022/01/04 09:19:39;;;;;;;35.17;21.67;;;8.90;76.50;;;;;;5095797;28;20446;-21
2022/01/04 09:22:06;;;;;;;33.10;18.83;;;8.90;76.50;;;;;;5095886;28;20032;-21
2022/01/04 09:24:33;;;;;;;43.08;26.55;;;8.90;76.50;;;;;;5095829;28;20051;-22
2022/01/04 09:26:59;;;;;;;43.38;25.95;;;8.90;76.50;;;;;;5096418;28;20024;-22
2022/01/04 09:29:25;;;;;;;32.05;18.75;;;8.90;76.60;;;;;;5096751;28;20024;-22
2022/01/04 09:31:54;;;;;;;32.33;18.48;;;8.90;76.60;;;;;;5095551;28;20486;-21
2022/01/04 09:34:20;;;;;;;26.55;15.13;;;9.00;76.70;;;;;;5095281;28;20024;-21
2022/01/04 09:36:46;;;;;;;28.90;17.73;;;9.00;76.60;;;;;;5095353;28;20084;-21
2022/01/04 09:39:17;;;;;;;29.95;17.83;;;9.00;76.60;;;;;;5095697;28;20110;-21
2022/01/04 09:41:44;;;;;;;34.30;19.48;;;9.10;76.60;;;;;;5095373;28;20027;-21
2022/01/04 09:44:11;;;;;;;32.30;20.05;;;9.10;76.60;;;;;;5095210;28;20024;-22
2022/01/04 09:46:41;;;;;;;31.58;18.67;;;9.10;76.50;;;;;;5093902;28;20028;-22
2022/01/04 09:49:09;;;;;;;22.77;12.68;;;9.10;76.50;;;;;;5095545;28;20055;-21
2022/01/04 09:51:38;;;;;;;24.40;15.43;;;9.10;76.50;;;;;;5095436;28;20484;-21
2022/01/04 09:54:04;;;;;;;48.40;27.50;;;9.20;76.40;;;;;;5095419;28;20065;-21
2022/01/04 09:56:30;;;;;;;48.22;27.63;;;9.20;76.50;;;;;;5094701;28;20036;-21
2022/01/04 09:58:56;;;;;;;44.50;26.50;;;9.20;76.40;;;;;;5095026;28;20560;-21
2022/01/04 10:01:25;;;;;;;47.10;26.90;;;9.30;76.40;;;;;;5094977;28;20119;-21
2022/01/04 10:03:51;;;;;;;42.17;26.02;;;9.30;76.50;;;;;;5094673;28;20448;-21
2022/01/04 10:06:19;;;;;;;44.85;27.02;;;9.30;76.40;;;;;;5094596;28;20048;-22
2022/01/04 10:09:00;;;;;;;41.67;24.73;;;9.30;76.40;;;;;;5094822;28;20050;-21
2022/01/04 10:11:50;;;;;;;40.45;24.13;;;9.30;76.40;;;;;;5095182;28;20032;-22
2022/01/04 10:14:32;;;;;;;35.90;21.45;;;9.30;76.40;;;;;;5094856;28;20028;-22
2022/01/04 10:17:00;;;;;;;50.45;30.15;;;9.30;76.50;;;;;;5094998;28;20133;-21
2022/01/04 10:19:34;;;;;;;35.17;21.42;;;9.30;76.50;;;;;;5094635;28;20020;-21
2022/01/04 10:22:19;;;;;;;42.05;26.88;;;9.30;76.50;;;;;;5094797;28;20028;-21
2022/01/04 10:24:48;;;;;;;38.40;22.83;;;9.40;76.50;;;;;;5094472;28;20028;-21
2022/01/04 10:27:26;;;;;;;39.25;23.70;;;9.40;76.40;;;;;;5094385;28;20020;-21
2022/01/04 10:30:10;;;;;;;39.50;21.75;;;9.40;76.40;;;;;;5094402;28;20032;-21
2022/01/04 10:32:43;;;;;;;;;;;9.40;76.30;;;;;;5093836;28;20081;-21
2022/01/04 10:35:10;;;;;;;33.92;19.77;;;9.40;76.50;;;;;;5094493;28;19904;-21
2022/01/04 10:37:39;;;;;;;39.95;23.88;;;9.40;76.30;;;;;;5094465;28;20484;-21
2022/01/04 10:40:09;;;;;;;36.80;20.95;;;9.50;76.20;;;;;;5094203;28;20077;-21
2022/01/04 10:42:35;;;;;;;33.00;21.33;;;9.50;76.10;;;;;;5093914;28;20028;-22
2022/01/04 10:45:30;;;;;;;37.55;23.85;;;9.50;76.20;;;;;;5094090;28;20070;-22
2022/01/04 10:48:11;;;;;;;35.50;20.88;;;9.50;76.10;;;;;;5094120;28;20035;-22
2022/01/04 10:50:38;;;;;;;41.20;24.75;;;9.50;76.10;;;;;;5093849;28;20553;-22
2022/01/04 10:53:05;;;;;;;39.95;22.63;;;9.50;76.20;;;;;;5094417;28;20074;-22
2022/01/04 10:55:33;;;;;;;36.70;21.88;;;9.50;76.20;;;;;;5093955;28;20034;-22
2022/01/04 10:58:01;;;;;;;25.65;15.05;;;9.50;76.20;;;;;;5094101;28;20084;-21
2022/01/04 11:00:28;;;;;;;36.03;20.98;;;9.60;76.20;;;;;;5093834;28;20141;-22
2022/01/04 11:02:54;;;;;;;43.13;26.05;;;9.60;76.10;;;;;;5093456;28;20052;-22
2022/01/04 11:05:22;;;;;;;32.80;19.55;;;9.60;76.10;;;;;;5092522;28;20389;-22
2022/01/04 11:08:07;;;;;;;33.97;20.73;;;9.60;76.10;;;;;;5094282;28;20036;-22
2022/01/04 11:10:35;;;;;;;38.72;23.42;;;9.70;76.00;;;;;;5094640;28;20119;-21
2022/01/04 11:13:02;;;;;;;22.55;13.00;;;9.70;76.00;;;;;;5094137;28;20042;-22
2022/01/04 11:15:29;;;;;;;43.53;24.50;;;9.70;75.90;;;;;;5093624;28;20024;-21
2022/01/04 11:17:56;;;;;;;36.10;20.80;;;9.70;76.00;;;;;;5093801;28;20113;-22
2022/01/04 11:20:23;;;;;;;48.53;29.55;;;9.70;75.90;;;;;;5093897;28;20020;-22
2022/01/04 11:22:50;;;;;;;41.97;25.67;;;9.70;76.00;;;;;;5094181;28;20024;-22
2022/01/04 11:25:22;;;;;;;27.33;16.27;;;9.70;76.00;;;;;;5093800;28;20073;-22
2022/01/04 11:27:49;;;;;;;27.08;17.00;;;9.70;76.00;;;;;;5093696;28;20024;-21
2022/01/04 11:30:29;;;;;;;29.02;18.13;;;9.70;75.90;;;;;;5093198;28;20035;-22
2022/01/04 11:33:02;;;;;;;32.80;20.08;;;9.70;75.80;;;;;;5093736;28;20020;-22
2022/01/04 11:35:29;;;;;;;32.42;18.60;;;9.80;75.80;;;;;;5093671;28;20028;-22
2022/01/04 11:38:00;;;;;;;25.63;14.52;;;9.80;75.70;;;;;;5093794;28;20024;-22
2022/01/04 11:40:34;;;;;;;33.08;19.33;;;9.80;75.70;;;;;;5093120;28;20020;-22
2022/01/04 11:43:03;;;;;;;31.85;19.15;;;9.90;75.50;;;;;;5093106;28;20028;-21
2022/01/04 11:45:46;;;;;;;23.00;12.95;;;9.90;75.60;;;;;;5093169;28;20036;-22
2022/01/04 11:48:28;;;;;;;21.80;12.43;;;9.80;75.50;;;;;;5093212;28;20475;-22
2022/01/04 11:51:05;;;;;;;34.75;22.52;;;9.90;75.50;;;;;;5093143;28;20461;-22
2022/01/04 11:53:33;;;;;;;30.52;18.42;;;9.80;75.40;;;;;;5093339;28;20023;-22
2022/01/04 11:56:08;;;;;;;25.67;15.57;;;9.80;75.40;;;;;;5093366;28;20028;-22
2022/01/04 11:58:45;;;;;;;32.30;20.63;;;9.90;75.40;;;;;;5093018;28;20040;-21
2022/01/04 12:01:15;;;;;;;35.10;21.08;;;9.90;75.30;;;;;;5093090;28;20573;-22
2022/01/04 12:03:47;;;;;;;19.88;12.65;;;9.90;75.20;;;;;;5092865;28;20052;-21
2022/01/04 12:06:16;;;;;;;27.13;17.27;;;9.90;75.20;;;;;;5093238;28;20168;-21
2022/01/04 12:08:52;;;;;;;33.00;21.55;;;9.90;75.20;;;;;;5092915;28;20510;-21
2022/01/04 12:11:26;;;;;;;34.67;23.17;;;9.90;75.20;;;;;;5093508;28;20024;-21
2022/01/04 12:13:53;;;;;;;32.53;20.65;;;9.90;75.00;;;;;;5092867;28;20575;-21
2022/01/04 12:16:39;;;;;;;34.80;22.45;;;9.90;75.00;;;;;;5092989;28;20069;-22
2022/01/04 12:19:07;;;;;;;28.45;17.80;;;9.90;75.00;;;;;;5093216;28;20028;-21
2022/01/04 12:21:38;;;;;;;48.83;31.63;;;9.90;75.00;;;;;;5093102;28;20051;-22
2022/01/04 12:24:06;;;;;;;36.53;24.75;;;9.90;74.90;;;;;;5092756;28;20115;-21
2022/01/04 12:26:34;;;;;;;35.60;23.15;;;9.90;75.00;;;;;;5092556;28;20529;-22
2022/01/04 12:29:03;;;;;;;34.53;22.85;;;9.90;75.10;;;;;;5092633;28;20032;-22
2022/01/04 12:31:35;;;;;;;36.92;23.75;;;9.90;75.10;;;;;;5092678;28;20503;-21
2022/01/04 12:34:25;;;;;;;36.55;25.38;;;9.90;75.10;;;;;;5092679;28;20032;-22
2022/01/04 12:36:52;;;;;;;42.20;27.67;;;9.90;75.20;;;;;;5092853;28;20032;-22
2022/01/04 12:39:20;;;;;;;30.02;19.70;;;9.90;75.20;;;;;;5092988;28;20383;-22
2022/01/04 12:41:48;;;;;;;31.45;20.83;;;9.90;75.10;;;;;;5093686;28;20051;-21
2022/01/04 12:44:22;;;;;;;39.38;26.67;;;9.90;75.00;;;;;;5091101;28;20036;-22
2022/01/04 12:46:49;;;;;;;45.88;28.27;;;9.90;75.10;;;;;;5092623;28;20499;-22
2022/01/04 12:49:28;;;;;;;44.95;30.80;;;9.90;75.10;;;;;;5091254;28;20377;-22
2022/01/04 12:51:56;;;;;;;42.97;29.05;;;9.80;75.20;;;;;;5092529;28;20024;-21